Time;durP1;ratioP1;P1;durP2;ratioP2;P2;SDS_P1;SDS_P2;PMS_P1;PMS_P2;Temp;Humidity;BMP_temperature;BMP_pressure;BME280_temperature;BME280_humidity;BME280_pressure;Samples;Min_cycle;Max_cycle;Signal;HPM_P1;HPM_P2
2022/01/28 00:05:17;;;;;;;3.50;2.78;;;21.30;43.80;;;;;;4935240;28;20081;-57
2022/01/28 00:07:44;;;;;;;3.20;2.88;;;21.30;43.80;;;;;;4942143;28;20051;-57
2022/01/28 00:10:12;;;;;;;3.35;2.50;;;21.30;43.80;;;;;;4935990;29;20096;-54
2022/01/28 00:13:03;;;;;;;2.92;2.47;;;21.30;43.70;;;;;;4941601;28;20063;-61
2022/01/28 00:15:31;;;;;;;3.00;2.47;;;21.40;43.70;;;;;;4939444;28;20085;-59
2022/01/28 00:40:17;;;;;;;3.63;2.88;;;21.50;43.60;;;;;;4857649;29;20053;-49
2022/01/28 00:42:44;;;;;;;3.58;2.22;;;21.50;43.60;;;;;;4863103;29;20494;-58
2022/01/28 00:45:11;;;;;;;3.95;1.75;;;21.50;43.60;;;;;;4862851;29;20049;-55
2022/01/28 00:47:39;;;;;;;3.40;2.63;;;21.50;43.50;;;;;;4861330;29;20082;-60
2022/01/28 00:50:06;;;;;;;5.47;4.05;;;21.50;43.50;;;;;;4859428;29;20221;-52
2022/01/28 00:52:35;;;;;;;2.78;2.10;;;21.50;43.40;;;;;;4862676;29;20057;-53
2022/01/28 00:55:02;;;;;;;1.98;1.88;;;21.50;43.40;;;;;;4860260;29;20281;-51
2022/01/28 00:57:29;;;;;;;4.15;2.58;;;21.50;43.40;;;;;;4884900;29;20068;-51
2022/01/28 00:59:56;;;;;;;3.20;2.17;;;21.50;43.30;;;;;;4913915;29;20074;-52
2022/01/28 01:02:24;;;;;;;2.92;1.98;;;21.50;43.30;;;;;;4937541;28;20461;-57
2022/01/28 01:04:51;;;;;;;2.00;1.77;;;21.50;43.40;;;;;;4938244;28;20098;-55
2022/01/28 01:07:18;;;;;;;2.25;1.80;;;21.50;43.50;;;;;;4940168;28;20042;-50
2022/01/28 01:09:48;;;;;;;3.97;2.20;;;21.50;43.50;;;;;;4936333;28;20138;-70
2022/01/28 01:12:17;;;;;;;2.75;2.35;;;21.50;43.40;;;;;;4936223;28;20039;-56
2022/01/28 01:14:45;;;;;;;4.97;2.72;;;21.50;43.30;;;;;;4942637;28;20058;-61
2022/01/28 01:17:25;;;;;;;4.75;2.70;;;21.50;43.40;;;;;;4942234;28;20106;-56
2022/01/28 01:20:01;;;;;;;4.63;2.78;;;21.50;43.50;;;;;;4940175;28;20619;-59
2022/01/28 01:22:36;;;;;;;3.40;2.88;;;21.50;43.50;;;;;;4945316;29;20043;-58
2022/01/28 01:25:14;;;;;;;3.45;2.60;;;21.50;43.50;;;;;;4941468;28;20169;-58
2022/01/28 01:27:42;;;;;;;3.33;2.92;;;21.50;43.50;;;;;;4944022;28;20039;-61
2022/01/28 01:30:12;;;;;;;3.67;2.60;;;21.50;43.50;;;;;;4938287;28;20087;-58
2022/01/28 01:32:39;;;;;;;3.63;3.08;;;21.50;43.50;;;;;;4941267;29;20106;-59
2022/01/28 01:35:07;;;;;;;3.50;2.40;;;21.50;43.50;;;;;;4942558;28;20055;-57
2022/01/28 01:37:34;;;;;;;3.38;2.63;;;21.50;43.50;;;;;;4946069;29;20500;-60
2022/01/28 01:40:01;;;;;;;2.83;2.17;;;21.50;43.50;;;;;;4941098;28;20043;-52
2022/01/28 01:42:37;;;;;;;2.47;2.28;;;21.60;43.60;;;;;;4942513;28;20058;-50
2022/01/28 01:45:47;;;;;;;3.58;2.30;;;21.60;43.60;;;;;;4944000;28;20122;-44
2022/01/28 01:53:43;;;;;;;1.63;1.52;;;21.60;43.40;;;;;;4943113;28;20087;-58
2022/01/28 01:56:10;;;;;;;2.55;2.13;;;21.60;43.40;;;;;;4944829;28;20039;-43
2022/01/28 01:58:40;;;;;;;2.28;1.55;;;21.50;43.40;;;;;;4945972;29;20047;-43
2022/01/28 02:01:07;;;;;;;3.80;2.22;;;21.50;43.50;;;;;;4940037;28;20047;-44
2022/01/28 02:03:34;;;;;;;3.63;2.17;;;21.50;43.50;;;;;;4942978;28;20083;-46
2022/01/28 02:06:02;;;;;;;3.03;2.72;;;21.50;43.50;;;;;;4938700;28;20039;-44
2022/01/28 02:08:32;;;;;;;2.05;1.95;;;21.50;43.50;;;;;;4941499;28;20051;-52
2022/01/28 02:10:59;;;;;;;6.63;3.25;;;21.50;43.50;;;;;;4934702;29;20050;-55
2022/01/28 02:13:27;;;;;;;5.28;2.33;;;21.50;43.40;;;;;;4944680;29;20422;-53
2022/01/28 02:15:58;;;;;;;9.90;2.80;;;21.50;43.90;;;;;;4940487;28;20055;-49
2022/01/28 02:18:25;;;;;;;5.35;1.92;;;21.50;43.30;;;;;;4941719;28;20519;-54
2022/01/28 02:20:59;;;;;;;8.35;1.77;;;21.50;43.30;;;;;;4937972;28;20043;-51
2022/01/28 02:23:26;;;;;;;8.60;2.55;;;21.50;43.30;;;;;;4941433;28;20102;-51
2022/01/28 02:25:56;;;;;;;5.90;2.13;;;21.50;43.30;;;;;;4943582;28;20039;-51
2022/01/28 02:28:25;;;;;;;3.63;1.75;;;21.50;43.30;;;;;;4945433;29;20039;-53
2022/01/28 02:30:52;;;;;;;6.65;2.25;;;21.40;43.20;;;;;;4934237;28;20856;-53
2022/01/28 02:33:22;;;;;;;4.72;2.05;;;21.40;43.20;;;;;;4940644;28;20043;-52
2022/01/28 02:35:50;;;;;;;4.82;1.70;;;21.40;43.30;;;;;;4926225;29;20047;-52
2022/01/28 02:38:21;;;;;;;6.25;2.35;;;21.40;43.30;;;;;;4942653;28;20047;-56
2022/01/28 02:40:53;;;;;;;4.85;1.58;;;21.30;43.30;;;;;;4938795;28;20045;-53
2022/01/28 02:43:30;;;;;;;7.22;1.60;;;21.30;43.30;;;;;;4944347;29;20169;-53
2022/01/28 02:46:05;;;;;;;6.43;2.20;;;21.30;43.30;;;;;;4939862;28;20055;-52
2022/01/28 02:48:33;;;;;;;3.38;1.88;;;21.30;43.40;;;;;;4940230;29;20051;-52
2022/01/28 02:51:06;;;;;;;4.85;2.85;;;21.30;43.40;;;;;;4938306;29;20039;-50
2022/01/28 02:53:49;;;;;;;2.13;1.77;;;21.30;43.40;;;;;;4942851;28;20098;-50
2022/01/28 02:56:20;;;;;;;2.80;1.95;;;21.30;43.40;;;;;;4940856;28;20539;-53
2022/01/28 02:58:48;;;;;;;3.95;1.92;;;21.20;43.30;;;;;;4942173;28;20090;-53
2022/01/28 03:01:17;;;;;;;3.20;2.45;;;21.20;43.30;;;;;;4936890;29;20042;-51
2022/01/28 03:03:45;;;;;;;3.28;2.20;;;21.20;43.30;;;;;;4935684;28;20051;-51
2022/01/28 03:06:14;;;;;;;3.88;2.15;;;21.20;43.30;;;;;;4942808;28;20046;-54
2022/01/28 03:08:48;;;;;;;5.22;1.67;;;21.20;43.30;;;;;;4940801;28;20066;-56
2022/01/28 03:11:42;;;;;;;2.60;2.20;;;21.20;43.30;;;;;;4933298;28;20054;-51
2022/01/28 03:14:20;;;;;;;5.40;2.35;;;21.20;43.30;;;;;;4938021;28;20051;-50
2022/01/28 03:17:06;;;;;;;2.03;1.67;;;21.10;43.30;;;;;;4942928;28;20066;-54
2022/01/28 03:19:44;;;;;;;3.47;2.70;;;21.10;43.20;;;;;;4943420;29;20062;-50
2022/01/28 03:22:11;;;;;;;8.43;2.22;;;21.10;43.30;;;;;;4938668;29;20456;-50
2022/01/28 03:24:41;;;;;;;2.78;1.73;;;21.10;43.30;;;;;;4939441;28;20779;-48
2022/01/28 03:27:17;;;;;;;3.35;1.60;;;21.10;43.30;;;;;;4940830;28;20039;-47
2022/01/28 03:29:44;;;;;;;3.08;2.33;;;21.00;43.20;;;;;;4938798;28;20625;-49
2022/01/28 03:32:11;;;;;;;3.38;2.65;;;21.00;43.20;;;;;;4933752;28;20051;-53
2022/01/28 03:34:38;;;;;;;2.30;1.73;;;21.00;43.20;;;;;;4943743;29;20047;-54
2022/01/28 03:37:07;;;;;;;2.97;2.20;;;21.00;43.30;;;;;;4939564;28;20067;-53
2022/01/28 03:39:35;;;;;;;2.45;1.95;;;21.00;43.30;;;;;;4941198;28;20053;-50
2022/01/28 03:42:05;;;;;;;5.03;2.17;;;20.90;43.20;;;;;;4935785;28;20648;-51
2022/01/28 03:44:32;;;;;;;1.98;1.55;;;20.90;43.20;;;;;;4938887;28;20047;-50
2022/01/28 03:46:59;;;;;;;5.18;2.30;;;20.90;43.20;;;;;;4942147;28;20893;-50
2022/01/28 03:49:26;;;;;;;2.60;2.40;;;20.90;43.20;;;;;;4943282;29;20150;-50
2022/01/28 03:51:53;;;;;;;1.60;1.20;;;20.90;43.30;;;;;;4921458;29;20638;-49
2022/01/28 03:54:20;;;;;;;4.05;1.77;;;20.90;43.20;;;;;;4941127;28;20055;-49
2022/01/28 03:56:47;;;;;;;2.35;2.15;;;20.90;43.20;;;;;;4939615;28;20043;-47
2022/01/28 03:59:15;;;;;;;1.63;1.48;;;20.90;43.30;;;;;;4939966;28;20412;-52
2022/01/28 04:01:45;;;;;;;2.67;2.40;;;20.90;43.30;;;;;;4932354;28;20054;-49
2022/01/28 04:12:30;;;;;;;2.75;2.08;;;20.80;43.40;;;;;;4938407;28;20493;-47
2022/01/28 04:15:07;;;;;;;1.98;1.83;;;20.70;43.40;;;;;;4938370;28;20051;-50
2022/01/28 04:17:37;;;;;;;2.28;1.55;;;20.80;43.40;;;;;;4937102;28;20471;-52
2022/01/28 04:20:05;;;;;;;2.75;2.55;;;20.80;44.00;;;;;;4937989;28;20467;-46
2022/01/28 04:22:32;;;;;;;4.75;1.58;;;20.80;43.50;;;;;;4942023;29;20047;-47
2022/01/28 04:24:59;;;;;;;2.50;1.77;;;20.80;43.50;;;;;;4941642;29;20039;-46
2022/01/28 04:27:26;;;;;;;2.00;1.80;;;20.80;43.50;;;;;;4941580;29;20642;-52
2022/01/28 04:29:53;;;;;;;3.13;1.08;;;20.70;43.50;;;;;;4935905;28;20054;-46
2022/01/28 04:32:23;;;;;;;2.60;1.95;;;20.70;43.50;;;;;;4940290;28;20047;-48
2022/01/28 04:34:53;;;;;;;1.73;1.58;;;20.70;43.50;;;;;;4939649;29;20054;-50
2022/01/28 04:37:22;;;;;;;3.22;2.05;;;20.70;43.50;;;;;;4943574;29;20054;-46
2022/01/28 04:39:53;;;;;;;2.08;1.85;;;20.70;43.60;;;;;;4937498;29;20484;-47
2022/01/28 04:42:36;;;;;;;5.15;2.92;;;20.70;44.20;;;;;;4933413;28;20043;-49
2022/01/28 04:45:12;;;;;;;2.47;1.52;;;20.70;43.70;;;;;;4939165;28;20039;-53
2022/01/28 04:47:47;;;;;;;4.10;1.40;;;20.60;43.60;;;;;;4942736;28;20059;-47
2022/01/28 04:50:24;;;;;;;2.13;1.90;;;20.60;43.70;;;;;;4942553;28;20058;-47
2022/01/28 04:53:13;;;;;;;4.35;1.55;;;20.60;43.70;;;;;;4944542;28;20418;-46
2022/01/28 04:55:54;;;;;;;3.58;2.47;;;20.60;43.70;;;;;;4946224;28;20065;-52
2022/01/28 04:58:35;;;;;;;1.92;1.75;;;20.60;43.80;;;;;;4943832;29;20071;-53
2022/01/28 05:01:21;;;;;;;5.00;2.30;;;20.60;43.80;;;;;;4936173;28;20075;-48
2022/01/28 05:04:02;;;;;;;2.05;1.63;;;20.60;43.90;;;;;;4943893;28;20146;-48
2022/01/28 05:12:43;;;;;;;2.40;1.92;;;20.50;43.90;;;;;;4935039;28;20047;-51
2022/01/28 05:15:26;;;;;;;1.75;1.52;;;20.50;43.90;;;;;;4940815;28;20046;-54
2022/01/28 05:23:33;;;;;;;3.85;2.20;;;20.50;44.00;;;;;;4882318;29;20123;-51
2022/01/28 05:26:23;;;;;;;2.28;1.45;;;20.50;44.00;;;;;;4884826;29;20140;-51
2022/01/28 05:28:51;;;;;;;3.38;1.50;;;20.50;44.10;;;;;;4879278;29;20096;-49
2022/01/28 05:31:19;;;;;;;2.25;1.80;;;20.50;44.10;;;;;;4879967;29;20065;-51
2022/01/28 05:33:46;;;;;;;2.58;2.05;;;20.50;44.10;;;;;;4883994;29;20341;-50
2022/01/28 05:36:15;;;;;;;3.83;2.67;;;20.50;44.00;;;;;;4880247;29;20105;-54
2022/01/28 05:38:42;;;;;;;2.53;1.73;;;20.50;44.10;;;;;;4882907;29;20156;-54
2022/01/28 05:41:10;;;;;;;2.13;1.65;;;20.50;44.10;;;;;;4878239;29;20056;-53
2022/01/28 05:43:37;;;;;;;2.17;1.30;;;20.50;44.10;;;;;;4884658;29;20958;-54
2022/01/28 05:46:04;;;;;;;2.40;1.70;;;20.50;44.10;;;;;;4881580;29;20123;-52
2022/01/28 05:48:31;;;;;;;2.00;1.77;;;20.50;44.00;;;;;;4885193;29;20080;-53
2022/01/28 05:50:58;;;;;;;2.20;1.27;;;20.50;44.10;;;;;;4879132;29;20049;-53
2022/01/28 05:53:27;;;;;;;1.52;1.42;;;20.50;44.10;;;;;;4883303;29;20184;-52
2022/01/28 05:55:54;;;;;;;2.15;1.33;;;20.60;44.10;;;;;;4884169;29;20537;-54
2022/01/28 05:58:21;;;;;;;3.22;1.15;;;20.50;44.00;;;;;;4883842;29;20049;-52
2022/01/28 06:00:48;;;;;;;3.17;2.03;;;20.50;44.00;;;;;;4908056;29;20051;-51
2022/01/28 06:03:15;;;;;;;1.30;1.10;;;20.50;44.00;;;;;;4942685;28;20043;-49
2022/01/28 06:05:44;;;;;;;3.20;1.73;;;20.60;44.00;;;;;;4943422;28;20134;-53
2022/01/28 06:08:12;;;;;;;2.30;2.03;;;20.50;44.10;;;;;;4939192;28;20184;-52
2022/01/28 06:10:40;;;;;;;1.73;1.42;;;20.60;44.10;;;;;;4940661;29;20546;-49
2022/01/28 06:13:09;;;;;;;3.58;2.00;;;20.60;44.10;;;;;;4943432;29;20575;-48
2022/01/28 06:15:39;;;;;;;2.70;2.38;;;20.60;44.10;;;;;;4939532;28;20050;-52
2022/01/28 06:18:06;;;;;;;2.13;1.95;;;20.60;44.10;;;;;;4942180;28;20049;-50
2022/01/28 06:20:34;;;;;;;1.98;1.83;;;20.50;44.00;;;;;;4939660;28;20036;-53
2022/01/28 06:23:01;;;;;;;1.85;1.15;;;20.50;44.00;;;;;;4941372;29;20055;-56
2022/01/28 06:25:28;;;;;;;2.13;1.90;;;20.50;44.00;;;;;;4944847;29;20491;-55
2022/01/28 06:27:56;;;;;;;1.48;1.38;;;20.50;44.00;;;;;;4942254;29;20439;-50
2022/01/28 06:30:25;;;;;;;1.50;1.40;;;20.50;44.10;;;;;;4939665;29;20047;-50
2022/01/28 06:32:52;;;;;;;1.70;1.60;;;20.50;44.00;;;;;;4942544;28;20118;-50
2022/01/28 06:35:19;;;;;;;2.95;1.83;;;20.50;44.00;;;;;;4943857;28;20051;-50
2022/01/28 06:37:47;;;;;;;3.53;2.13;;;20.50;44.10;;;;;;4944200;28;20058;-50
2022/01/28 06:40:16;;;;;;;2.35;1.55;;;20.50;44.00;;;;;;4939342;29;20444;-48
2022/01/28 06:42:43;;;;;;;3.63;2.70;;;20.50;44.00;;;;;;4940674;28;20051;-48
2022/01/28 06:45:12;;;;;;;2.38;2.08;;;20.50;44.10;;;;;;4941698;29;20071;-50
2022/01/28 06:47:40;;;;;;;3.88;2.63;;;20.50;44.00;;;;;;4942960;28;20600;-51
2022/01/28 06:50:10;;;;;;;2.08;1.98;;;20.50;44.00;;;;;;4939932;28;20550;-48
2022/01/28 06:52:38;;;;;;;3.40;2.08;;;20.50;44.00;;;;;;4939723;29;20058;-47
2022/01/28 06:55:07;;;;;;;2.03;1.67;;;20.50;44.10;;;;;;4940883;28;20130;-49
2022/01/28 06:57:35;;;;;;;2.65;2.10;;;20.50;44.10;;;;;;4940332;28;20081;-50
2022/01/28 07:00:04;;;;;;;1.73;1.60;;;20.50;44.10;;;;;;4937574;28;20048;-50
2022/01/28 07:02:33;;;;;;;2.83;2.47;;;20.50;44.10;;;;;;4941003;28;20047;-51
2022/01/28 07:05:00;;;;;;;2.90;2.08;;;20.50;44.30;;;;;;4937288;28;20379;-56
2022/01/28 07:07:28;;;;;;;3.13;2.15;;;20.50;44.30;;;;;;4943980;29;20066;-52
2022/01/28 07:09:55;;;;;;;3.25;2.03;;;20.50;44.30;;;;;;4938135;28;20052;-49
2022/01/28 07:12:23;;;;;;;3.17;2.40;;;20.50;44.30;;;;;;4940442;28;20047;-49
2022/01/28 07:14:50;;;;;;;3.97;1.98;;;20.50;44.40;;;;;;4941326;28;20086;-48
2022/01/28 07:17:17;;;;;;;4.45;2.28;;;20.50;44.40;;;;;;4941613;28;20051;-49
2022/01/28 07:19:46;;;;;;;3.65;2.15;;;20.50;44.40;;;;;;4940969;28;20044;-48
2022/01/28 07:22:13;;;;;;;2.88;2.00;;;20.50;44.30;;;;;;4940355;29;20059;-51
2022/01/28 07:24:40;;;;;;;2.97;2.58;;;20.50;44.40;;;;;;4939812;28;20126;-50
2022/01/28 07:27:08;;;;;;;3.08;1.83;;;20.50;44.50;;;;;;4941226;28;20043;-49
2022/01/28 07:29:35;;;;;;;2.10;1.75;;;20.50;44.40;;;;;;4941628;28;20043;-51
2022/01/28 07:32:02;;;;;;;3.45;2.03;;;20.50;44.40;;;;;;4917378;28;20047;-53
2022/01/28 07:34:30;;;;;;;1.48;1.27;;;20.50;44.50;;;;;;4949023;29;20047;-59
2022/01/28 07:36:59;;;;;;;1.63;1.52;;;20.50;44.80;;;;;;4947399;28;20130;-52
2022/01/28 07:39:27;;;;;;;3.53;1.48;;;20.40;44.80;;;;;;4947561;28;20050;-64
2022/01/28 07:41:54;;;;;;;4.45;2.00;;;20.40;45.60;;;;;;4947779;28;20051;-62
2022/01/28 07:44:21;;;;;;;3.83;1.52;;;20.30;45.20;;;;;;4946927;28;20075;-63
2022/01/28 07:46:49;;;;;;;5.35;1.10;;;20.30;45.50;;;;;;4947846;28;20051;-60
2022/01/28 07:49:16;;;;;;;1.15;1.10;;;20.20;45.70;;;;;;4948211;28;20047;-60
2022/01/28 07:51:43;;;;;;;2.78;1.23;;;20.10;45.80;;;;;;4946344;28;20113;-60
2022/01/28 07:54:12;;;;;;;2.10;1.92;;;20.10;45.90;;;;;;4946949;28;20070;-58
2022/01/28 07:56:39;;;;;;;2.28;1.42;;;20.00;46.00;;;;;;4947337;28;20110;-60
2022/01/28 07:59:06;;;;;;;5.20;1.70;;;19.90;46.10;;;;;;4947329;28;20042;-60
2022/01/28 08:01:33;;;;;;;2.10;1.27;;;19.90;46.20;;;;;;4948629;29;20050;-60
2022/01/28 08:04:01;;;;;;;2.75;1.05;;;19.80;46.30;;;;;;4947696;28;20629;-60
2022/01/28 08:06:29;;;;;;;5.65;1.52;;;19.80;46.40;;;;;;4946816;28;20051;-63
2022/01/28 08:08:59;;;;;;;2.63;1.58;;;19.70;46.50;;;;;;4946915;28;20055;-62
2022/01/28 08:11:27;;;;;;;6.80;1.33;;;19.70;46.50;;;;;;4947264;28;20058;-63
2022/01/28 08:13:55;;;;;;;9.73;1.73;;;19.70;46.70;;;;;;4945770;28;20664;-63
2022/01/28 08:16:22;;;;;;;2.15;1.75;;;19.60;46.70;;;;;;4946770;28;20062;-62
2022/01/28 08:18:49;;;;;;;2.97;2.15;;;19.60;46.90;;;;;;4946558;28;20043;-62
2022/01/28 08:21:17;;;;;;;1.88;1.70;;;19.50;46.90;;;;;;4946791;28;20074;-62
2022/01/28 08:23:44;;;;;;;2.53;1.42;;;19.50;47.00;;;;;;4946235;28;20041;-63
2022/01/28 08:26:12;;;;;;;2.40;2.20;;;19.50;47.00;;;;;;4946902;28;20051;-63
2022/01/28 08:28:41;;;;;;;2.28;1.45;;;19.40;47.00;;;;;;4948308;29;20047;-61
2022/01/28 08:31:08;;;;;;;1.73;1.05;;;19.40;47.10;;;;;;4947800;28;20669;-59
2022/01/28 08:33:36;;;;;;;1.45;1.35;;;19.40;47.20;;;;;;4946285;28;20057;-61
2022/01/28 08:36:04;;;;;;;2.10;1.80;;;19.30;47.20;;;;;;4948229;28;20485;-61
2022/01/28 08:38:36;;;;;;;2.95;2.22;;;19.30;47.30;;;;;;4947624;28;20047;-61
2022/01/28 08:41:04;;;;;;;3.00;1.75;;;19.30;47.40;;;;;;4946991;28;20653;-61
2022/01/28 08:43:32;;;;;;;0.98;0.73;;;19.30;47.50;;;;;;4948422;29;20039;-54
2022/01/28 08:46:01;;;;;;;4.00;2.40;;;19.30;47.60;;;;;;4946423;28;20572;-51
2022/01/28 08:48:28;;;;;;;3.45;1.95;;;19.20;47.60;;;;;;4946921;28;20039;-52
2022/01/28 08:50:55;;;;;;;6.25;2.45;;;19.20;47.70;;;;;;4944885;28;20043;-56
2022/01/28 08:53:22;;;;;;;3.90;1.75;;;19.20;47.80;;;;;;4946810;28;20077;-55
2022/01/28 08:55:49;;;;;;;5.10;1.50;;;19.20;48.00;;;;;;4947132;28;20149;-53
2022/01/28 08:58:16;;;;;;;3.72;1.60;;;19.20;48.10;;;;;;4948242;28;20265;-53
2022/01/28 09:00:46;;;;;;;4.30;1.77;;;19.30;48.20;;;;;;4947608;28;20115;-59
2022/01/28 09:03:16;;;;;;;2.10;1.83;;;19.20;48.20;;;;;;4946434;28;20530;-61
2022/01/28 09:05:43;;;;;;;4.18;1.67;;;19.30;48.10;;;;;;4929232;29;20878;-59
2022/01/28 09:08:11;;;;;;;2.72;1.40;;;19.30;48.10;;;;;;4943182;28;20070;-50
2022/01/28 09:10:43;;;;;;;4.38;1.30;;;19.30;48.20;;;;;;4947929;29;20500;-63
2022/01/28 09:13:21;;;;;;;4.70;1.23;;;19.30;48.30;;;;;;4947275;28;20158;-62
2022/01/28 09:15:50;;;;;;;3.05;1.05;;;19.30;48.40;;;;;;4945898;28;20101;-65
2022/01/28 09:18:20;;;;;;;0.80;0.80;;;19.30;48.40;;;;;;4947373;28;20488;-46
2022/01/28 09:20:48;;;;;;;3.13;1.73;;;19.40;48.40;;;;;;4946693;28;20043;-46
2022/01/28 09:23:16;;;;;;;1.30;1.10;;;19.40;48.30;;;;;;4946703;28;20449;-49
2022/01/28 09:25:43;;;;;;;3.55;1.00;;;19.40;48.30;;;;;;4947360;28;20059;-49
2022/01/28 09:28:10;;;;;;;3.47;1.08;;;19.50;48.30;;;;;;4947503;28;20047;-48
2022/01/28 09:30:38;;;;;;;3.05;0.93;;;19.50;48.80;;;;;;4946233;28;20134;-48
2022/01/28 09:33:06;;;;;;;1.77;1.42;;;19.50;48.20;;;;;;4946291;28;20054;-59
2022/01/28 09:35:35;;;;;;;4.93;1.55;;;19.50;48.10;;;;;;4950124;28;20054;-59
2022/01/28 09:38:03;;;;;;;2.80;1.25;;;19.50;47.90;;;;;;4949814;28;20050;-59
2022/01/28 09:40:31;;;;;;;1.92;1.05;;;19.50;47.80;;;;;;4951495;28;20043;-59
2022/01/28 09:42:59;;;;;;;1.75;1.65;;;19.50;47.70;;;;;;4949692;28;20074;-59
2022/01/28 09:45:27;;;;;;;6.95;1.63;;;19.50;47.60;;;;;;4949196;28;20051;-61
2022/01/28 09:47:56;;;;;;;2.20;0.73;;;19.50;47.50;;;;;;4949724;28;20073;-59
2022/01/28 09:50:25;;;;;;;1.05;0.82;;;19.50;47.50;;;;;;4950982;28;20411;-58
2022/01/28 09:52:55;;;;;;;2.30;0.90;;;19.50;47.40;;;;;;4948831;28;20521;-60
2022/01/28 09:55:24;;;;;;;2.63;1.50;;;19.50;47.40;;;;;;4950745;29;20508;-59
2022/01/28 09:57:53;;;;;;;2.65;0.50;;;19.50;47.40;;;;;;4949385;28;20047;-50
2022/01/28 10:00:25;;;;;;;2.45;1.00;;;19.50;47.50;;;;;;4949005;28;20046;-52
2022/01/28 10:02:54;;;;;;;2.55;1.33;;;19.50;47.60;;;;;;4949586;28;20039;-48
2022/01/28 10:05:26;;;;;;;1.77;0.82;;;19.50;47.70;;;;;;4943397;28;20047;-52
2022/01/28 10:08:09;;;;;;;3.47;1.63;;;19.50;47.70;;;;;;4949589;28;20464;-52
2022/01/28 10:10:55;;;;;;;2.25;1.25;;;19.60;47.70;;;;;;4954373;29;20106;-59
2022/01/28 10:13:28;;;;;;;3.13;1.02;;;19.60;47.80;;;;;;4951128;28;20039;-61
2022/01/28 10:16:14;;;;;;;2.75;0.80;;;19.60;47.80;;;;;;4949089;28;20141;-68
2022/01/28 10:18:45;;;;;;;1.20;1.10;;;19.60;47.70;;;;;;4949215;28;20591;-63
2022/01/28 10:21:29;;;;;;;1.55;1.05;;;19.60;47.70;;;;;;4948774;28;20555;-66
2022/01/28 10:24:07;;;;;;;0.63;0.60;;;19.70;47.70;;;;;;4949097;28;20535;-65
2022/01/28 10:26:37;;;;;;;1.10;0.57;;;19.70;47.60;;;;;;4949297;28;20050;-55
2022/01/28 10:29:07;;;;;;;1.23;1.13;;;19.70;47.60;;;;;;4948864;28;20039;-61
2022/01/28 10:31:43;;;;;;;2.05;0.77;;;19.70;47.50;;;;;;4950650;29;20043;-61
2022/01/28 10:34:16;;;;;;;1.25;0.68;;;19.80;47.40;;;;;;4949794;28;20047;-63
2022/01/28 10:36:46;;;;;;;1.65;0.40;;;19.80;47.40;;;;;;4948917;28;20047;-65
2022/01/28 10:39:17;;;;;;;1.83;1.08;;;19.80;47.30;;;;;;4948777;28;20043;-50
2022/01/28 10:41:56;;;;;;;2.65;0.77;;;19.80;47.90;;;;;;4948722;28;20050;-48
2022/01/28 10:44:24;;;;;;;1.20;0.60;;;19.80;47.20;;;;;;4945188;28;20044;-49
2022/01/28 10:46:57;;;;;;;1.40;0.60;;;19.80;47.20;;;;;;4939258;28;20109;-47
2022/01/28 10:49:30;;;;;;;2.10;1.52;;;19.80;46.50;;;;;;4941655;28;20053;-45
2022/01/28 10:52:07;;;;;;;6.32;1.75;;;19.90;46.30;;;;;;4941058;28;20031;-46
2022/01/28 10:54:36;;;;;;;2.38;1.70;;;19.90;46.20;;;;;;4937669;28;20141;-47
2022/01/28 10:57:05;;;;;;;2.38;2.17;;;19.90;46.10;;;;;;4940039;28;20047;-46
2022/01/28 10:59:35;;;;;;;2.92;1.40;;;20.00;45.90;;;;;;4941812;28;20070;-61
2022/01/28 11:02:03;;;;;;;2.53;1.08;;;20.10;45.70;;;;;;4943748;28;20047;-66
2022/01/28 11:04:30;;;;;;;4.38;1.88;;;20.20;45.70;;;;;;4942552;29;20058;-60
2022/01/28 11:06:59;;;;;;;3.80;0.90;;;20.30;45.70;;;;;;4941715;28;20054;-57
2022/01/28 11:09:27;;;;;;;3.92;1.45;;;20.40;45.60;;;;;;4941411;28;20556;-55
2022/01/28 11:11:55;;;;;;;1.23;1.10;;;20.60;45.40;;;;;;4940749;28;20050;-57
2022/01/28 11:14:25;;;;;;;3.85;1.10;;;20.80;45.20;;;;;;4937381;28;20603;-59
2022/01/28 11:16:52;;;;;;;1.77;1.17;;;20.90;45.00;;;;;;4943667;28;20050;-59
2022/01/28 11:19:22;;;;;;;1.95;1.02;;;21.10;44.80;;;;;;4944066;29;20057;-56
2022/01/28 11:22:08;;;;;;;1.45;0.75;;;21.20;44.40;;;;;;4943346;28;20682;-61
2022/01/28 11:25:06;;;;;;;1.52;0.88;;;21.40;44.20;;;;;;4936185;28;20094;-56
2022/01/28 11:27:36;;;;;;;1.73;0.40;;;21.60;43.90;;;;;;4941173;28;20122;-50
2022/01/28 11:30:22;;;;;;;1.75;0.90;;;21.70;43.70;;;;;;4940514;28;20039;-53
2022/01/28 11:33:01;;;;;;;1.23;0.90;;;21.90;43.30;;;;;;4935795;28;20055;-61
2022/01/28 11:35:37;;;;;;;1.90;0.82;;;22.00;43.10;;;;;;4939543;28;20137;-58
2022/01/28 11:38:40;;;;;;;0.75;0.75;;;22.20;42.90;;;;;;4942095;28;20047;-47
2022/01/28 11:41:10;;;;;;;5.50;1.65;;;22.30;42.60;;;;;;4882705;29;20679;-52
2022/01/28 11:43:47;;;;;;;1.33;0.90;;;22.40;42.40;;;;;;4884135;29;20072;-48
2022/01/28 11:46:21;;;;;;;2.72;1.30;;;22.60;42.20;;;;;;4884324;29;20716;-53
2022/01/28 11:49:24;;;;;;;2.20;1.15;;;22.70;41.90;;;;;;4883712;29;20055;-62
2022/01/28 11:51:52;;;;;;;1.48;1.20;;;22.90;41.60;;;;;;4882467;29;20744;-51
2022/01/28 11:54:23;;;;;;;2.63;1.15;;;22.90;41.50;;;;;;4884732;29;20063;-61
2022/01/28 11:57:18;;;;;;;1.65;0.90;;;23.10;41.30;;;;;;4882625;29;20076;-60
2022/01/28 11:59:47;;;;;;;2.35;0.90;;;23.20;41.00;;;;;;4882898;29;20051;-56
2022/01/28 12:02:17;;;;;;;6.85;1.42;;;23.20;40.80;;;;;;4879915;29;20052;-53
2022/01/28 12:04:45;;;;;;;1.17;0.68;;;23.30;40.70;;;;;;4889149;29;20561;-52
2022/01/28 12:07:18;;;;;;;0.90;0.40;;;23.40;40.30;;;;;;4884463;29;20059;-57
2022/01/28 12:09:47;;;;;;;1.13;0.90;;;23.50;40.20;;;;;;4865518;29;20048;-53
2022/01/28 12:12:24;;;;;;;1.23;0.60;;;23.60;40.10;;;;;;4882249;29;20139;-55
2022/01/28 12:15:00;;;;;;;1.90;0.65;;;23.70;39.90;;;;;;4878246;29;20072;-57
2022/01/28 12:17:38;;;;;;;1.08;0.60;;;23.70;39.70;;;;;;4928124;28;20555;-57
2022/01/28 12:20:38;;;;;;;1.15;1.05;;;23.80;39.70;;;;;;4942115;29;20138;-57
2022/01/28 12:23:30;;;;;;;1.65;0.77;;;23.90;39.50;;;;;;4938451;28;20397;-57
2022/01/28 12:25:59;;;;;;;0.95;0.55;;;24.00;39.50;;;;;;4935953;28;20534;-56
2022/01/28 12:28:44;;;;;;;1.95;0.40;;;24.00;39.50;;;;;;4943865;29;20106;-57
2022/01/28 12:31:17;;;;;;;1.48;0.80;;;24.10;39.40;;;;;;4941196;29;20122;-54
2022/01/28 12:33:47;;;;;;;4.32;1.02;;;24.10;39.30;;;;;;4937158;28;20174;-55
2022/01/28 12:36:16;;;;;;;2.28;0.60;;;24.20;39.20;;;;;;4941240;28;20853;-53
2022/01/28 12:38:56;;;;;;;0.80;0.60;;;24.20;39.00;;;;;;4939481;28;20108;-56
2022/01/28 12:41:24;;;;;;;1.02;0.75;;;24.20;39.00;;;;;;4942144;28;20054;-54
2022/01/28 12:43:52;;;;;;;1.75;0.47;;;24.30;38.90;;;;;;4936593;28;20565;-59
2022/01/28 12:46:20;;;;;;;2.15;0.60;;;24.30;38.80;;;;;;4940749;29;20043;-58
2022/01/28 12:48:49;;;;;;;1.83;0.68;;;24.40;38.80;;;;;;4937151;28;20063;-58
2022/01/28 12:51:17;;;;;;;1.05;0.30;;;24.40;38.80;;;;;;4938911;28;20039;-56
2022/01/28 12:53:47;;;;;;;1.63;0.95;;;24.50;38.70;;;;;;4936780;28;20067;-55
2022/01/28 12:56:16;;;;;;;3.92;0.85;;;24.50;38.70;;;;;;4938165;28;20055;-58
2022/01/28 12:58:48;;;;;;;0.47;0.43;;;24.60;38.60;;;;;;4941283;28;20119;-56
2022/01/28 13:01:17;;;;;;;2.30;0.75;;;24.60;38.50;;;;;;4941748;28;20428;-57
2022/01/28 13:03:52;;;;;;;0.88;0.60;;;24.60;38.40;;;;;;4935720;28;20448;-56
2022/01/28 13:06:27;;;;;;;1.52;0.50;;;24.70;38.40;;;;;;4939065;28;20497;-56
2022/01/28 13:08:56;;;;;;;1.95;0.45;;;24.70;38.30;;;;;;4938256;28;20134;-57
2022/01/28 13:11:25;;;;;;;1.25;0.65;;;24.70;38.20;;;;;;4942139;28;20051;-55
2022/01/28 13:13:53;;;;;;;0.98;0.73;;;24.80;38.20;;;;;;4943110;28;20054;-55
2022/01/28 13:16:34;;;;;;;1.50;0.73;;;24.80;38.10;;;;;;4946286;29;20122;-55
2022/01/28 13:19:04;;;;;;;0.82;0.47;;;24.90;38.10;;;;;;4945341;28;20125;-57
2022/01/28 13:21:33;;;;;;;0.32;0.30;;;24.90;38.00;;;;;;4943236;28;20051;-56
2022/01/28 13:24:09;;;;;;;4.10;0.47;;;24.90;37.90;;;;;;4938311;29;20039;-50
2022/01/28 13:26:38;;;;;;;4.72;0.35;;;25.00;37.90;;;;;;4945348;28;20608;-49
2022/01/28 13:29:07;;;;;;;0.30;0.30;;;25.00;37.90;;;;;;4945294;28;20043;-48
2022/01/28 13:31:34;;;;;;;3.35;0.47;;;25.00;37.90;;;;;;4946949;29;20058;-59
2022/01/28 13:34:05;;;;;;;1.15;0.40;;;25.00;37.90;;;;;;4941703;28;20051;-60
2022/01/28 13:36:49;;;;;;;0.60;0.40;;;25.10;38.00;;;;;;4943888;28;21488;-65
2022/01/28 13:39:19;;;;;;;1.75;0.52;;;25.10;37.90;;;;;;4941313;28;20046;-63
2022/01/28 13:41:51;;;;;;;2.33;0.38;;;25.20;38.00;;;;;;4941510;28;20047;-60
2022/01/28 13:44:26;;;;;;;1.13;0.20;;;25.20;38.00;;;;;;4941537;28;20058;-52
2022/01/28 13:47:01;;;;;;;0.68;0.68;;;25.30;37.90;;;;;;4945201;28;20039;-52
2022/01/28 13:49:32;;;;;;;1.15;0.57;;;25.30;37.70;;;;;;4946968;29;20122;-54
2022/01/28 13:52:17;;;;;;;0.82;0.32;;;25.40;37.80;;;;;;4942869;28;20090;-52
2022/01/28 13:54:45;;;;;;;5.45;0.50;;;25.50;37.70;;;;;;4938206;28;20075;-62
2022/01/28 13:57:13;;;;;;;0.75;0.38;;;25.50;37.60;;;;;;4942865;28;20039;-61
2022/01/28 13:59:42;;;;;;;0.85;0.55;;;25.50;38.20;;;;;;4942716;28;20709;-66